Frostburg, MD

10:29 AM EST on February 11, 2016 (GMT -0500)
Frost Avenue, Frostburg, MD | | Change Station
CLOSE
Current Station
Personal Weather Station
Location: Frostburg, MD
Elevation: 2100 ft
Nearby Weather Stations
Active Advisory: Winter Weather Advisory

Elev 2100 ft 39.66 °N, 78.93 °W | Updated 16 seconds ago

Mostly Cloudy
Mostly Cloudy
11.8 °F
Feels Like 1 °F
N
7.2
Wind Variable Wind from WSW
Gusts 9.8 mph

Today
High -- | Low -- °F
--% Chance of Precip.
Yesterday
High -- | Low -- °F
Precip. -- in
Pressure 30.17 in
Visibility 10.0 miles
Clouds Scattered Clouds 1200 ft
Scattered Clouds 1700 ft
Scattered Clouds 3100 ft
Windchill 1 °F
Dew Point -5 °F
Humidity 46%
Rainfall 0.00 in
Snow Depth Not available.
7:13 AM 5:46 PM
Waxing Crescent, 12% visible
METAR KCBE 111518Z AUTO 27015G22KT 10SM SCT012 SCT017 SCT031 M07/M16 A3017 RMK AO1
Pressure 30.17 in
Visibility 10.0 miles
Clouds Scattered Clouds 1200 ft
Scattered Clouds 1700 ft
Scattered Clouds 3100 ft
Windchill 1 °F
Dew Point -5 °F
Humidity 46%
Rainfall 0.00 in
Snow Depth Not available.
7:13 AM 5:46 PM
Waxing Crescent, 12% visible
METAR KCBE 111518Z AUTO 27015G22KT 10SM SCT012 SCT017 SCT031 M07/M16 A3017 RMK AO1

10-Day Weather Forecast

Almanac

Astronomy

Feb. 11, 2016 Rise Set
Actual Time
Civil Twilight
Nautical Twilight
Astronomical Twilight
Moon
Length of Visible Light
Length of Day
Tomorrow will be .
, % of the Moon is Illuminated

Today's Extremes

State Highs State Lows

Community

WunderPhotos

Upload Photos

1,892,066 photos uploaded!

WunderBlog® & News

Nearby

Air Quality

  Air Quality AQ Index Pollutant
Not available.

Snow Depth

Station Depth Elevation

Earthquake Activity

City Distance Mag. Time & Date
Minimum magnitude displayed is 2.5.

Coastal Water Temperatures

Place Temperature

Stations

Nearby Weather Stations

Station Location Temp. Windchill Dew Point Humidity Wind Precip. Elev Updated Type
                   

Watches & Warnings

Winter Weather Advisory
Issued: 10:05 AM EST Feb. 11, 2016 – National Weather Service

... Winter Weather Advisory remains in effect until 6 PM EST this
evening...
... Wind Chill Advisory is cancelled...

The National Weather Service in Baltimore MD/Washington has
cancelled the Wind Chill Advisory.

* Accumulations... additional snow accumulations of 1 to 3 inches
today.

* Timing... the snow will continue through today... but weaken in
intensity by late afternoon.

* Impacts... snow covered roads resulting in possible travel
disruptions.

* Winds... west 10 to 20 mph with gusts up to 30 mph.

* Temperatures... rising into the teens this afternoon.

* Wind chill... as low as 10 below zero in the highest elevations.

Precautionary/preparedness actions...

A Winter Weather Advisory for snow means that periods of snow
will cause primarily travel difficulties. Be prepared for snow
covered roads and limited visibilities... and use caution while
driving.